Norwegian Dawn — C6FT7 — position and weather

sailwx.info

Track history (hours):
 
Tides and Currents Weather Stations Pressure Air Temp Water Temp Dewpoint Dewpoint Depression Visibility Wind Speed Wind Dir Waves Ship Positions

Norwegian Dawn

Operator: Norwegian Cruise Line

Last reported at 2019-Jul-16 22:00 UTC. Time now 2019-Jul-19 18:45 UTC.
Position N 25°48' W 077°54'.

Type: Ship. MMSI: 311307000.

Wind from 130 at 11 knots

Barometer 1018.7 mb
Air temperature 31.0 ° C
Visibility: greater than 5.4 NM
Dewpoint 21.3 ° C

Date/timePositionNaut miles runAvg speedWind from/ knotsBaromVisibWave heightAir tempDewpointWater temp
2019-Jul-16 22:00N 25°48' W 077°54'212 8.9 130 / 111018.7 5.4 31.021.3
2019-Jul-15 22:00N 28°24' W 080°36'19610.3 090 / 101018.5 5.4 33.021.3
2019-Jul-15 03:04N 31°33' W 079°36'29820.7
2019-Jul-14 12:40N 34°59' W 075°19'321.1
2019-Jul-14 12:31N 35°02' W 075°16'1120.9
2019-Jul-14 11:58N 35°10' W 075°06'920.7
2019-Jul-14 11:31N 35°17' W 074°59'1020.8
2019-Jul-14 11:00N 35°27' W 074°54'1020.9
2019-Jul-14 10:31N 35°37' W 074°50'1121.5
2019-Jul-14 10:00N 35°47' W 074°47'1122.5
2019-Jul-14 09:31N 35°58' W 074°44'1122.8
2019-Jul-14 09:01N 36°09' W 074°42'1122.9
2019-Jul-14 08:30N 36°21' W 074°39'1223.1
2019-Jul-14 08:00N 36°32' W 074°37'1223.2
2019-Jul-14 07:31N 36°43' W 074°34'1223.2
2019-Jul-14 07:00N 36°55' W 074°31'1123.0
2019-Jul-14 06:31N 37°06' W 074°29'1122.8
2019-Jul-14 06:01N 37°17' W 074°27'1223.2
2019-Jul-14 05:30N 37°29' W 074°24'1223.1
2019-Jul-14 05:00N 37°40' W 074°22'1122.7
2019-Jul-14 04:30N 37°52' W 074°20'1222.6
2019-Jul-14 03:58N 38°04' W 074°18'1022.3
2019-Jul-14 03:30N 38°14' W 074°16'1122.3
2019-Jul-14 03:01N 38°25' W 074°14'1122.0
2019-Jul-14 02:31N 38°35' W 074°11'1122.1
2019-Jul-14 02:00N 38°46' W 074°06'1122.1
2019-Jul-14 01:31N 38°57' W 074°03'1121.8
2019-Jul-14 01:00N 39°08' W 074°01'1121.3
2019-Jul-14 00:30N 39°18' W 073°59'1121.2
2019-Jul-14 00:00N 39°29' W 073°56'1121.3
2019-Jul-13 23:30N 39°39' W 073°54'1121.1
2019-Jul-13 23:00N 39°50' W 073°53'1121.0
2019-Jul-13 22:30N 40°00' W 073°51'1121.1
2019-Jul-13 22:00N 40°11' W 073°49'1121.1
2019-Jul-13 21:30N 40°21' W 073°47'711.0
2019-Jul-13 20:53N 40°27' W 073°51'717.3
2019-Jul-13 20:30N 40°31' W 073°58'815.4
2019-Jul-13 20:00N 40°37' W 074°03'612.6
2019-Jul-13 19:30N 40°43' W 074°01'3 5.8
2019-Jul-13 19:00N 40°46' W 073°60'0 0.0
2019-Jul-13 18:25N 40°46' W 073°60'0 0.0
2019-Jul-13 17:58N 40°46' W 073°60'0 0.0
2019-Jul-13 17:28N 40°46' W 073°60'0 0.0
2019-Jul-13 16:58N 40°46' W 073°60'0 0.0
2019-Jul-13 16:28N 40°46' W 073°60'0 0.0
2019-Jul-13 15:58N 40°46' W 073°60'0 0.0
2019-Jul-13 15:28N 40°46' W 073°60'0 0.0
2019-Jul-13 14:58N 40°46' W 073°60'0 0.0
2019-Jul-13 14:28N 40°46' W 073°60'0 0.0
2019-Jul-13 13:58N 40°46' W 073°60'0 0.0
2019-Jul-13 13:25N 40°46' W 073°60'0 0.0
2019-Jul-13 12:58N 40°46' W 073°60'0 0.0
2019-Jul-13 12:28N 40°46' W 073°60'0 0.0
2019-Jul-13 11:58N 40°46' W 073°60'0 0.0
2019-Jul-13 11:28N 40°46' W 073°60'0 0.0
2019-Jul-13 10:58N 40°46' W 073°60'0 0.0
2019-Jul-13 10:28N 40°46' W 073°60'0 0.0
2019-Jul-13 09:58N 40°46' W 073°60'0 0.0
2019-Jul-13 09:30N 40°46' W 073°60'0 0.0
2019-Jul-13 09:00N 40°46' W 073°60'0 0.3
2019-Jul-13 08:30N 40°46' W 074°00'2 5.0
2019-Jul-13 08:00N 40°44' W 074°01'815.0
2019-Jul-13 07:30N 40°36' W 074°03'816.8
2019-Jul-13 07:01N 40°30' W 073°56'815.5
2019-Jul-13 06:30N 40°25' W 073°47'816.3
2019-Jul-13 05:59N 40°17' W 073°45'917.6
2019-Jul-13 05:29N 40°08' W 073°45'1119.1
2019-Jul-13 04:54N 39°57' W 073°44'718.8
2019-Jul-13 04:30N 39°50' W 073°43'918.9
2019-Jul-13 04:00N 39°41' W 073°43'1019.0
2019-Jul-13 03:30N 39°31' W 073°44'1019.3
2019-Jul-13 03:00N 39°21' W 073°45'1219.4
2019-Jul-13 02:24N 39°10' W 073°48'716.3
2019-Jul-13 02:00N 39°03' W 073°49'  
2019-Jul-07 06:07N 37°16' W 074°27'522.4
2019-Jul-07 05:54N 37°21' W 074°26'4722.0
2019-Jul-07 03:47N 38°06' W 074°15'5921.5
2019-Jul-07 01:03N 39°04' W 074°02'321.2
2019-Jul-07 00:53N 39°08' W 074°01'1121.1
2019-Jul-07 00:23N 39°18' W 073°59'821.0
2019-Jul-07 00:00N 39°26' W 073°57'1020.8
2019-Jul-06 23:30N 39°36' W 073°54'1121.2
2019-Jul-06 23:00N 39°47' W 073°52'1020.5
2019-Jul-06 22:30N 39°57' W 073°51'1020.7
2019-Jul-06 22:00N 40°07' W 073°50'  
Track history (hours):
 
Tides and Currents Weather Stations Pressure Air Temp Water Temp Dewpoint Dewpoint Depression Visibility Wind Speed Wind Dir Waves Ship Positions

Norwegian Dawn

Operator: Norwegian Cruise Line

Last reported at 2019-Jul-16 22:00 UTC. Time now 2019-Jul-19 18:45 UTC.
Position N 25°48' W 077°54'.

Type: Ship. MMSI: 311307000.

Wind from 130 at 11 knots

Barometer 1018.7 mb
Air temperature 31.0 ° C
Visibility: greater than 5.4 NM
Dewpoint 21.3 ° C

Date/timePositionNaut miles runAvg speedWind from/ knotsBaromVisibWave heightAir tempDewpointWater temp
2019-Jul-16 22:00N 25°48' W 077°54'212 8.9 130 / 111018.7 5.4 31.021.3
2019-Jul-15 22:00N 28°24' W 080°36'19610.3 090 / 101018.5 5.4 33.021.3
2019-Jul-15 03:04N 31°33' W 079°36'29820.7
2019-Jul-14 12:40N 34°59' W 075°19'321.1
2019-Jul-14 12:31N 35°02' W 075°16'1120.9
2019-Jul-14 11:58N 35°10' W 075°06'920.7
2019-Jul-14 11:31N 35°17' W 074°59'1020.8
2019-Jul-14 11:00N 35°27' W 074°54'1020.9
2019-Jul-14 10:31N 35°37' W 074°50'1121.5
2019-Jul-14 10:00N 35°47' W 074°47'1122.5
2019-Jul-14 09:31N 35°58' W 074°44'1122.8
2019-Jul-14 09:01N 36°09' W 074°42'1122.9
2019-Jul-14 08:30N 36°21' W 074°39'1223.1
2019-Jul-14 08:00N 36°32' W 074°37'1223.2
2019-Jul-14 07:31N 36°43' W 074°34'1223.2
2019-Jul-14 07:00N 36°55' W 074°31'1123.0
2019-Jul-14 06:31N 37°06' W 074°29'1122.8
2019-Jul-14 06:01N 37°17' W 074°27'1223.2
2019-Jul-14 05:30N 37°29' W 074°24'1223.1
2019-Jul-14 05:00N 37°40' W 074°22'1122.7
2019-Jul-14 04:30N 37°52' W 074°20'1222.6
2019-Jul-14 03:58N 38°04' W 074°18'1022.3
2019-Jul-14 03:30N 38°14' W 074°16'1122.3
2019-Jul-14 03:01N 38°25' W 074°14'1122.0
2019-Jul-14 02:31N 38°35' W 074°11'1122.1
2019-Jul-14 02:00N 38°46' W 074°06'1122.1
2019-Jul-14 01:31N 38°57' W 074°03'1121.8
2019-Jul-14 01:00N 39°08' W 074°01'1121.3
2019-Jul-14 00:30N 39°18' W 073°59'1121.2
2019-Jul-14 00:00N 39°29' W 073°56'1121.3
2019-Jul-13 23:30N 39°39' W 073°54'1121.1
2019-Jul-13 23:00N 39°50' W 073°53'1121.0
2019-Jul-13 22:30N 40°00' W 073°51'1121.1
2019-Jul-13 22:00N 40°11' W 073°49'1121.1
2019-Jul-13 21:30N 40°21' W 073°47'711.0
2019-Jul-13 20:53N 40°27' W 073°51'717.3
2019-Jul-13 20:30N 40°31' W 073°58'815.4
2019-Jul-13 20:00N 40°37' W 074°03'612.6
2019-Jul-13 19:30N 40°43' W 074°01'3 5.8
2019-Jul-13 19:00N 40°46' W 073°60'0 0.0
2019-Jul-13 18:25N 40°46' W 073°60'0 0.0
2019-Jul-13 17:58N 40°46' W 073°60'0 0.0
2019-Jul-13 17:28N 40°46' W 073°60'0 0.0
2019-Jul-13 16:58N 40°46' W 073°60'0 0.0
2019-Jul-13 16:28N 40°46' W 073°60'0 0.0
2019-Jul-13 15:58N 40°46' W 073°60'0 0.0
2019-Jul-13 15:28N 40°46' W 073°60'0 0.0
2019-Jul-13 14:58N 40°46' W 073°60'0 0.0
2019-Jul-13 14:28N 40°46' W 073°60'0 0.0
2019-Jul-13 13:58N 40°46' W 073°60'0 0.0
2019-Jul-13 13:25N 40°46' W 073°60'0 0.0
2019-Jul-13 12:58N 40°46' W 073°60'0 0.0
2019-Jul-13 12:28N 40°46' W 073°60'0 0.0
2019-Jul-13 11:58N 40°46' W 073°60'0 0.0
2019-Jul-13 11:28N 40°46' W 073°60'0 0.0
2019-Jul-13 10:58N 40°46' W 073°60'0 0.0
2019-Jul-13 10:28N 40°46' W 073°60'0 0.0
2019-Jul-13 09:58N 40°46' W 073°60'0 0.0
2019-Jul-13 09:30N 40°46' W 073°60'0 0.0
2019-Jul-13 09:00N 40°46' W 073°60'0 0.3
2019-Jul-13 08:30N 40°46' W 074°00'2 5.0
2019-Jul-13 08:00N 40°44' W 074°01'815.0
2019-Jul-13 07:30N 40°36' W 074°03'816.8
2019-Jul-13 07:01N 40°30' W 073°56'815.5
2019-Jul-13 06:30N 40°25' W 073°47'816.3
2019-Jul-13 05:59N 40°17' W 073°45'917.6
2019-Jul-13 05:29N 40°08' W 073°45'1119.1
2019-Jul-13 04:54N 39°57' W 073°44'718.8
2019-Jul-13 04:30N 39°50' W 073°43'918.9
2019-Jul-13 04:00N 39°41' W 073°43'1019.0
2019-Jul-13 03:30N 39°31' W 073°44'1019.3
2019-Jul-13 03:00N 39°21' W 073°45'1219.4
2019-Jul-13 02:24N 39°10' W 073°48'716.3
2019-Jul-13 02:00N 39°03' W 073°49'  
2019-Jul-07 06:07N 37°16' W 074°27'522.4
2019-Jul-07 05:54N 37°21' W 074°26'4722.0
2019-Jul-07 03:47N 38°06' W 074°15'5921.5
2019-Jul-07 01:03N 39°04' W 074°02'321.2
2019-Jul-07 00:53N 39°08' W 074°01'1121.1
2019-Jul-07 00:23N 39°18' W 073°59'821.0
2019-Jul-07 00:00N 39°26' W 073°57'1020.8
2019-Jul-06 23:30N 39°36' W 073°54'1121.2
2019-Jul-06 23:00N 39°47' W 073°52'1020.5
2019-Jul-06 22:30N 39°57' W 073°51'1020.7
2019-Jul-06 22:00N 40°07' W 073°50'  

Dump ship's entire track history